createdAt,value
2018-12-17T00:01:12.921Z,14.95
2018-12-17T00:03:44.134Z,18.02
2018-12-17T00:06:15.176Z,19.35
2018-12-17T00:08:44.842Z,23.65
2018-12-17T00:11:14.306Z,19.10
2018-12-17T00:13:43.485Z,20.50
2018-12-17T00:16:12.710Z,20.35
2018-12-17T00:18:41.861Z,17.27
2018-12-17T00:21:11.021Z,16.87
2018-12-17T00:23:40.133Z,24.60
2018-12-17T00:26:09.225Z,20.32
2018-12-17T00:28:38.377Z,16.80
2018-12-17T00:31:07.533Z,17.37
2018-12-17T00:33:36.721Z,16.85
2018-12-17T00:36:05.876Z,16.02
2018-12-17T00:38:35.015Z,18.98
2018-12-17T00:41:04.159Z,18.10
2018-12-17T00:43:33.607Z,16.77
2018-12-17T00:46:02.717Z,18.67
2018-12-17T00:48:32.345Z,17.23
2018-12-17T00:51:01.482Z,16.17
2018-12-17T00:53:30.533Z,17.17
2018-12-17T00:55:59.715Z,16.75
2018-12-17T00:58:28.887Z,15.88
2018-12-17T01:00:58.244Z,18.00
2018-12-17T01:03:28.384Z,16.50
2018-12-17T01:05:57.497Z,20.72
2018-12-17T01:08:26.691Z,17.48
2018-12-17T01:10:55.815Z,18.75
2018-12-17T01:13:24.988Z,15.23
2018-12-17T01:15:54.144Z,17.35
2018-12-17T01:18:23.396Z,16.93
2018-12-17T01:20:52.594Z,14.98
2018-12-17T01:23:21.704Z,17.32
2018-12-17T01:25:51.278Z,19.30
2018-12-17T01:28:22.293Z,18.55
2018-12-17T01:30:51.642Z,19.35
2018-12-17T01:33:20.792Z,16.52
2018-12-17T01:35:49.964Z,20.43
2018-12-17T01:38:19.134Z,17.23
2018-12-17T01:40:48.360Z,16.17
2018-12-17T01:43:17.479Z,21.02
2018-12-17T01:45:46.628Z,22.10
2018-12-17T01:48:15.755Z,21.90
2018-12-17T01:50:44.921Z,27.45
2018-12-17T01:53:14.029Z,20.35
2018-12-17T01:55:43.274Z,25.80
2018-12-17T01:58:12.482Z,20.37
2018-12-17T02:00:41.810Z,20.32
2018-12-17T02:03:11.041Z,20.72
2018-12-17T02:05:41.181Z,20.48
2018-12-17T02:08:10.335Z,25.95
2018-12-17T02:10:39.576Z,21.55
2018-12-17T02:13:08.627Z,25.00
2018-12-17T02:15:37.819Z,21.42
2018-12-17T02:18:06.979Z,20.65
2018-12-17T02:20:36.158Z,22.13
2018-12-17T02:23:05.371Z,17.27
2018-12-17T02:25:34.527Z,23.52
2018-12-17T02:28:03.669Z,21.30
2018-12-17T02:30:32.836Z,20.85
2018-12-17T02:33:01.990Z,18.10
2018-12-17T02:35:31.135Z,17.95
2018-12-17T02:38:00.296Z,21.48
2018-12-17T02:40:29.427Z,23.30
2018-12-17T02:42:58.561Z,21.60
2018-12-17T02:45:27.645Z,18.05
2018-12-17T02:47:56.819Z,21.00
2018-12-17T02:50:26.153Z,22.15
2018-12-17T02:52:55.246Z,20.92
2018-12-17T02:55:25.389Z,22.77
2018-12-17T02:57:54.527Z,19.40
2018-12-17T03:00:23.624Z,16.30
2018-12-17T03:02:52.779Z,21.30
2018-12-17T03:05:22.011Z,20.90
2018-12-17T03:07:51.179Z,17.65
2018-12-17T03:10:20.314Z,22.62
2018-12-17T03:12:49.458Z,15.68
2018-12-17T03:15:18.581Z,21.90
2018-12-17T03:17:47.780Z,22.50
2018-12-17T03:20:16.924Z,21.00
2018-12-17T03:22:46.079Z,21.87
2018-12-17T03:25:15.203Z,22.20
2018-12-17T03:27:44.359Z,17.92
2018-12-17T03:30:13.614Z,20.82
2018-12-17T03:32:42.772Z,18.90
2018-12-17T03:35:12.386Z,20.15
2018-12-17T03:37:41.543Z,18.45
2018-12-17T03:40:10.925Z,18.90
2018-12-17T03:42:40.070Z,20.40
2018-12-17T03:45:09.419Z,19.48
2018-12-17T03:47:38.590Z,21.60
2018-12-17T03:50:09.851Z,19.50
2018-12-17T03:52:38.959Z,17.32
2018-12-17T03:55:08.199Z,15.68
2018-12-17T03:57:37.471Z,19.12
2018-12-17T04:00:07.255Z,20.60
2018-12-17T04:02:36.415Z,18.48
2018-12-17T04:05:06.424Z,21.00
2018-12-17T04:07:36.622Z,18.12
2018-12-17T04:10:06.293Z,19.23
2018-12-17T04:12:35.452Z,17.85
2018-12-17T04:15:04.952Z,18.62
2018-12-17T04:17:35.205Z,19.15
2018-12-17T04:20:04.558Z,21.82
2018-12-17T04:22:33.695Z,14.73
2018-12-17T04:25:03.050Z,19.27
2018-12-17T04:27:33.242Z,19.60
2018-12-17T04:30:02.376Z,17.17
2018-12-17T04:32:32.640Z,18.80
2018-12-17T04:35:01.748Z,19.48
2018-12-17T04:37:31.997Z,19.30
2018-12-17T04:40:01.196Z,21.93
2018-12-17T04:42:30.343Z,16.52
2018-12-17T04:44:59.575Z,15.88
2018-12-17T04:47:28.721Z,16.25
2018-12-17T04:49:57.854Z,19.32
2018-12-17T04:52:27.039Z,18.92
2018-12-17T04:54:56.152Z,20.57
2018-12-17T04:57:25.276Z,14.55
2018-12-17T04:59:54.576Z,14.73
2018-12-17T05:02:23.722Z,14.65
2018-12-17T05:04:52.860Z,13.32
2018-12-17T05:07:21.988Z,16.75
2018-12-17T05:09:51.218Z,15.23
2018-12-17T05:12:20.547Z,15.13
2018-12-17T05:14:49.662Z,14.58
2018-12-17T05:17:18.971Z,14.20
2018-12-17T05:19:48.121Z,16.40
2018-12-17T05:22:17.250Z,14.25
2018-12-17T05:24:47.413Z,19.40
2018-12-17T05:27:17.259Z,18.98
2018-12-17T05:29:46.371Z,21.27
2018-12-17T05:32:15.468Z,21.77
2018-12-17T05:34:44.643Z,19.02
2018-12-17T05:37:14.501Z,24.70
2018-12-17T05:39:43.645Z,20.92
2018-12-17T05:42:12.797Z,19.73
2018-12-17T05:44:41.919Z,28.12
2018-12-17T05:47:11.045Z,19.42
2018-12-17T05:49:40.152Z,18.92
2018-12-17T05:52:09.253Z,21.70
2018-12-17T05:54:38.359Z,21.05
2018-12-17T05:57:07.549Z,23.95
2018-12-17T05:59:36.666Z,19.95
2018-12-17T06:02:05.870Z,21.97
2018-12-17T06:04:35.009Z,20.72
2018-12-17T06:07:04.228Z,20.48
2018-12-17T06:09:33.688Z,27.40
2018-12-17T06:12:02.968Z,29.85
2018-12-17T06:14:32.300Z,21.27
2018-12-17T06:17:01.431Z,21.45
2018-12-17T06:19:30.595Z,20.00
2018-12-17T06:21:59.709Z,25.40
2018-12-17T06:24:28.877Z,25.12
2018-12-17T06:26:58.057Z,23.35
2018-12-17T06:29:27.177Z,24.25
2018-12-17T06:31:56.377Z,23.77
2018-12-17T06:34:25.492Z,23.40
2018-12-17T06:36:54.641Z,21.80
2018-12-17T06:39:23.963Z,24.15
2018-12-17T06:41:53.121Z,21.85
2018-12-17T06:44:22.251Z,25.23
2018-12-17T06:46:51.485Z,23.42
2018-12-17T06:49:20.649Z,28.17
2018-12-17T06:51:50.189Z,24.60
2018-12-17T06:54:20.141Z,23.35
2018-12-17T06:56:49.318Z,25.55
2018-12-17T06:59:18.481Z,30.80
2018-12-17T07:01:48.223Z,20.55
2018-12-17T07:04:17.347Z,21.50
2018-12-17T07:06:46.487Z,24.70
2018-12-17T07:09:16.143Z,25.82
2018-12-17T07:11:45.261Z,20.97
2018-12-17T07:14:14.547Z,23.40
2018-12-17T07:16:44.875Z,22.85
2018-12-17T07:19:14.025Z,21.52
2018-12-17T07:21:43.144Z,23.35
2018-12-17T07:24:12.303Z,19.07
2018-12-17T07:26:41.472Z,24.98
2018-12-17T07:29:10.631Z,20.68
2018-12-17T07:31:39.815Z,20.65
2018-12-17T07:34:09.013Z,18.87
2018-12-17T07:36:38.159Z,21.10
2018-12-17T07:39:08.935Z,24.77
2018-12-17T07:41:38.211Z,19.45
2018-12-17T07:44:07.404Z,22.50
2018-12-17T07:46:36.570Z,17.80
2018-12-17T07:49:05.739Z,18.35
2018-12-17T07:51:34.911Z,23.12
2018-12-17T07:54:04.077Z,19.75
2018-12-17T07:56:33.258Z,19.42
2018-12-17T07:59:02.505Z,22.90
2018-12-17T08:01:31.685Z,18.17
2018-12-17T08:04:00.851Z,22.77
2018-12-17T08:06:30.032Z,22.65
2018-12-17T08:08:59.184Z,24.65
2018-12-17T08:11:28.284Z,21.30
2018-12-17T08:13:57.481Z,21.25
2018-12-17T08:16:26.769Z,20.77
2018-12-17T08:18:55.964Z,23.45
2018-12-17T08:21:25.150Z,21.60
2018-12-17T08:23:54.239Z,18.17
2018-12-17T08:26:23.447Z,27.10
2018-12-17T08:28:52.576Z,21.60
2018-12-17T08:31:21.711Z,30.48
2018-12-17T08:33:50.906Z,28.20
2018-12-17T08:36:20.015Z,27.20
2018-12-17T08:38:49.169Z,33.20
2018-12-17T08:41:18.347Z,29.10
2018-12-17T08:43:47.503Z,26.35
2018-12-17T08:46:18.515Z,29.65
2018-12-17T08:48:47.711Z,28.38
2018-12-17T08:51:17.123Z,27.37
2018-12-17T08:53:46.312Z,22.60
2018-12-17T08:56:16.564Z,25.90
2018-12-17T08:58:45.703Z,24.87
2018-12-17T09:01:15.008Z,28.60
2018-12-17T09:03:44.184Z,27.82
2018-12-17T09:06:13.416Z,24.35
2018-12-17T09:08:42.610Z,26.93
2018-12-17T09:11:11.708Z,25.32
2018-12-17T09:13:40.894Z,24.63
2018-12-17T09:16:10.052Z,23.42
2018-12-17T09:18:40.286Z,29.80
2018-12-17T09:21:09.556Z,21.50
2018-12-17T09:23:38.684Z,27.82
2018-12-17T09:26:07.827Z,27.30
2018-12-17T09:28:37.005Z,30.32
2018-12-17T09:31:06.155Z,28.10
2018-12-17T09:33:36.466Z,24.50
2018-12-17T09:36:05.600Z,22.02
2018-12-17T09:38:34.734Z,24.75
2018-12-17T09:41:03.980Z,27.37
2018-12-17T09:43:33.210Z,20.37
2018-12-17T09:46:02.330Z,31.45
2018-12-17T09:48:31.517Z,29.42
2018-12-17T09:51:00.700Z,21.82
2018-12-17T09:53:29.884Z,26.60
2018-12-17T09:55:59.077Z,19.70
2018-12-17T09:58:28.379Z,28.85
2018-12-17T10:00:57.485Z,23.07
2018-12-17T10:03:26.826Z,24.10
2018-12-17T10:05:55.972Z,25.82
2018-12-17T10:08:25.149Z,30.05
2018-12-17T10:10:54.302Z,27.60
2018-12-17T10:13:23.512Z,23.85
2018-12-17T10:15:52.812Z,21.45
2018-12-17T10:18:21.944Z,26.33
2018-12-17T10:20:51.258Z,21.45
2018-12-17T10:23:20.502Z,21.37
2018-12-17T10:25:49.594Z,22.95
2018-12-17T10:28:18.795Z,20.95
2018-12-17T10:30:47.911Z,20.65
2018-12-17T10:33:17.066Z,26.95
2018-12-17T10:35:46.226Z,28.35
2018-12-17T10:38:16.916Z,26.33
2018-12-17T10:40:46.133Z,30.15
2018-12-17T10:43:16.504Z,23.85
2018-12-17T10:45:45.670Z,24.35
2018-12-17T10:48:14.780Z,25.88
2018-12-17T10:50:43.914Z,23.95
2018-12-17T10:53:13.443Z,24.90
2018-12-17T10:55:42.603Z,32.70
2018-12-17T10:58:11.788Z,23.60
2018-12-17T11:00:46.522Z,23.02
2018-12-17T11:03:20.657Z,24.10
2018-12-17T11:05:50.437Z,22.90
2018-12-17T11:08:19.555Z,21.57
2018-12-17T11:10:48.661Z,23.95
2018-12-17T11:13:17.873Z,18.85
2018-12-17T11:15:47.037Z,22.58
2018-12-17T11:18:16.225Z,20.75
2018-12-17T11:20:46.563Z,21.25
2018-12-17T11:23:18.169Z,20.45
2018-12-17T11:25:47.582Z,27.35
2018-12-17T11:28:16.757Z,22.90
2018-12-17T11:30:46.600Z,29.07
2018-12-17T11:33:16.203Z,20.72
2018-12-17T11:35:45.386Z,23.45
2018-12-17T11:38:14.701Z,23.07
2018-12-17T11:40:45.070Z,29.10
2018-12-17T11:43:14.296Z,18.00
2018-12-17T11:45:43.485Z,24.80
2018-12-17T11:48:12.602Z,25.52
2018-12-17T11:50:41.809Z,22.58
2018-12-17T11:53:10.959Z,27.87
2018-12-17T11:55:40.109Z,33.45
2018-12-17T11:58:14.608Z,27.17
2018-12-17T12:01:18.088Z,21.23
2018-12-17T12:03:47.357Z,22.17
2018-12-17T12:06:16.651Z,25.65
2018-12-17T12:08:45.827Z,26.02
2018-12-17T12:11:15.053Z,27.85
2018-12-17T12:13:44.223Z,25.77
2018-12-17T12:16:13.453Z,25.88
2018-12-17T12:18:42.603Z,24.15
2018-12-17T12:21:11.778Z,25.00
2018-12-17T12:23:41.887Z,24.57
2018-12-17T12:26:11.167Z,21.93
2018-12-17T12:28:40.313Z,18.80
2018-12-17T12:31:09.472Z,14.15
2018-12-17T12:33:38.677Z,15.48
2018-12-17T12:36:07.852Z,20.02
2018-12-17T12:38:37.035Z,21.57
2018-12-17T12:41:06.502Z,19.12
2018-12-17T12:43:35.684Z,18.10
2018-12-17T12:46:04.875Z,14.23
2018-12-17T12:48:34.041Z,19.60
2018-12-17T12:51:03.203Z,25.82
2018-12-17T12:53:32.342Z,16.12
2018-12-17T12:56:01.508Z,17.65
2018-12-17T12:58:30.732Z,12.37
2018-12-17T13:00:59.852Z,18.75
2018-12-17T13:03:29.029Z,15.50
2018-12-17T13:05:58.195Z,15.15
2018-12-17T13:08:28.373Z,19.70
2018-12-17T13:10:57.531Z,27.20
2018-12-17T13:13:26.658Z,18.92
2018-12-17T13:15:55.770Z,20.45
2018-12-17T13:18:24.934Z,18.02
2018-12-17T13:20:54.087Z,19.32
2018-12-17T13:23:23.277Z,18.42
2018-12-17T13:25:53.044Z,18.90
2018-12-17T13:28:22.243Z,19.95
2018-12-17T13:30:51.380Z,20.70
2018-12-17T13:33:20.556Z,23.18
2018-12-17T13:35:49.708Z,20.77
2018-12-17T13:38:19.034Z,19.90
2018-12-17T13:40:48.109Z,21.68
2018-12-17T13:43:17.316Z,14.38
2018-12-17T13:45:46.421Z,20.20
2018-12-17T13:48:15.621Z,16.82
2018-12-17T13:50:44.769Z,18.55
2018-12-17T13:53:19.406Z,18.98
2018-12-17T13:55:48.505Z,19.60
2018-12-17T13:58:17.646Z,19.60
2018-12-17T14:00:46.915Z,21.23
2018-12-17T14:03:16.082Z,21.45
2018-12-17T14:05:45.360Z,16.90
2018-12-17T14:08:14.752Z,26.62
2018-12-17T14:10:49.430Z,24.23
2018-12-17T14:13:18.708Z,18.77
2018-12-17T14:15:54.350Z,22.35
2018-12-17T14:18:28.860Z,21.85
2018-12-17T14:22:07.091Z,22.00
2018-12-17T14:24:36.271Z,23.10
2018-12-17T14:27:05.532Z,27.27
2018-12-17T14:29:35.050Z,26.25
2018-12-17T14:32:05.251Z,21.65
2018-12-17T14:34:34.624Z,20.55
2018-12-17T14:37:03.989Z,22.27
2018-12-17T14:39:33.161Z,24.57
2018-12-17T14:42:02.331Z,25.97
2018-12-17T14:44:34.925Z,22.17
2018-12-17T14:47:04.250Z,27.52
2018-12-17T14:49:33.421Z,25.52
2018-12-17T14:52:02.596Z,26.73
2018-12-17T14:54:31.774Z,28.00
2018-12-17T14:57:01.005Z,26.95
2018-12-17T14:59:30.209Z,27.27
2018-12-17T15:01:59.422Z,25.43
2018-12-17T15:04:28.633Z,28.60
2018-12-17T15:06:57.921Z,27.42
2018-12-17T15:09:27.133Z,32.00
2018-12-17T15:11:56.287Z,28.12
2018-12-17T15:14:25.477Z,29.72
2018-12-17T15:16:55.661Z,32.15
2018-12-17T15:19:24.881Z,28.77
2018-12-17T15:21:54.051Z,27.93
2018-12-17T15:24:23.219Z,28.15
2018-12-17T15:26:52.417Z,34.00
2018-12-17T15:29:21.820Z,29.20
2018-12-17T15:31:51.076Z,32.30
2018-12-17T15:34:20.243Z,31.68
2018-12-17T15:36:49.391Z,33.70
2018-12-17T15:39:18.601Z,29.60
2018-12-17T15:41:47.812Z,35.05
2018-12-17T15:44:17.071Z,32.50
2018-12-17T15:46:46.320Z,29.67
2018-12-17T15:49:15.589Z,33.10
2018-12-17T15:51:44.961Z,38.45
2018-12-17T15:54:14.248Z,37.75
2018-12-17T15:56:43.379Z,33.40
2018-12-17T15:59:12.932Z,40.10
2018-12-17T16:01:42.065Z,35.33
2018-12-17T16:04:11.225Z,33.83
2018-12-17T16:06:40.500Z,29.18
2018-12-17T16:09:09.798Z,33.73
2018-12-17T16:11:39.080Z,37.80
2018-12-17T16:14:08.433Z,37.93
2018-12-17T16:16:37.624Z,33.85
2018-12-17T16:19:06.786Z,36.73
2018-12-17T16:21:36.040Z,45.83
2018-12-17T16:24:05.218Z,44.42
2018-12-17T16:26:34.467Z,43.08
2018-12-17T16:29:03.815Z,37.58
2018-12-17T16:31:33.204Z,50.38
2018-12-17T16:34:02.603Z,40.30
2018-12-17T16:36:32.260Z,44.15
2018-12-17T16:39:01.459Z,47.40
2018-12-17T16:41:30.834Z,40.67
2018-12-17T16:46:59.812Z,42.58
2018-12-17T16:49:29.009Z,41.70
2018-12-17T16:51:59.256Z,37.38
2018-12-17T16:54:28.674Z,38.67
2018-12-17T16:56:58.929Z,34.00
2018-12-17T16:59:28.007Z,43.73
2018-12-17T17:02:04.281Z,40.45
2018-12-17T17:04:28.343Z,38.25
2018-12-17T17:06:57.500Z,42.65
2018-12-17T17:09:26.651Z,37.67
2018-12-17T17:11:55.848Z,39.23
2018-12-17T17:14:25.025Z,43.40
2018-12-17T17:16:54.364Z,44.65
2018-12-17T17:19:23.499Z,47.60
2018-12-17T17:21:52.856Z,47.50
2018-12-17T17:24:22.035Z,40.52
2018-12-17T17:26:51.294Z,55.67
2018-12-17T17:29:20.440Z,48.50
2018-12-17T17:31:50.888Z,37.40
2018-12-17T17:34:20.145Z,44.58
2018-12-17T17:36:49.316Z,44.10
2018-12-17T17:39:18.492Z,41.70
2018-12-17T17:41:47.675Z,40.67
2018-12-17T17:44:16.825Z,36.40
2018-12-17T17:46:45.939Z,42.20
2018-12-17T17:49:15.210Z,47.62
2018-12-17T17:51:44.341Z,47.10
2018-12-17T17:54:13.789Z,50.95
2018-12-17T17:56:42.955Z,43.35
2018-12-17T17:59:12.096Z,52.35
2018-12-17T18:01:41.237Z,46.73
2018-12-17T18:04:10.374Z,53.98
2018-12-17T18:06:39.672Z,48.85
2018-12-17T18:09:10.034Z,44.58
2018-12-17T18:11:39.222Z,52.03
2018-12-17T18:14:08.370Z,48.68
2018-12-17T18:16:37.557Z,45.80
2018-12-17T18:19:06.737Z,52.53
2018-12-17T18:21:35.910Z,48.13
2018-12-17T18:24:05.080Z,46.15
2018-12-17T18:26:34.244Z,51.83
2018-12-17T18:30:32.603Z,56.68
2018-12-17T18:33:01.791Z,53.05
2018-12-17T18:35:31.044Z,54.30
2018-12-17T18:38:00.182Z,54.13
2018-12-17T18:40:29.373Z,54.15
2018-12-17T18:42:58.540Z,51.98
2018-12-17T18:45:27.735Z,55.80
2018-12-17T18:47:56.870Z,48.98
2018-12-17T18:50:26.190Z,56.02
2018-12-17T18:52:55.295Z,50.12
2018-12-17T18:55:24.544Z,52.55
2018-12-17T18:57:53.722Z,49.95
2018-12-17T19:00:22.818Z,54.58
2018-12-17T19:02:52.030Z,57.35
2018-12-17T19:05:21.112Z,54.18
2018-12-17T19:09:19.716Z,48.83
2018-12-17T19:11:48.900Z,51.95
2018-12-17T19:14:18.070Z,48.25
2018-12-17T19:16:47.300Z,53.50
2018-12-17T19:19:16.468Z,50.63
2018-12-17T19:21:45.666Z,49.30
2018-12-17T19:24:14.872Z,66.15
2018-12-17T19:26:44.004Z,57.98
2018-12-17T19:29:13.137Z,56.90
2018-12-17T19:31:42.330Z,59.98
2018-12-17T19:34:11.580Z,50.98
2018-12-17T19:36:40.777Z,57.60
2018-12-17T19:39:09.926Z,62.60
2018-12-17T19:41:41.072Z,61.37
2018-12-17T19:44:10.383Z,61.00
2018-12-17T19:46:39.664Z,52.48
2018-12-17T19:49:08.885Z,57.17
2018-12-17T19:51:38.079Z,52.50
2018-12-17T19:54:07.205Z,56.68
2018-12-17T19:56:36.438Z,51.45
2018-12-17T19:59:05.584Z,56.28
2018-12-17T20:01:34.720Z,54.05
2018-12-17T20:04:03.868Z,49.35
2018-12-17T20:06:33.059Z,47.98
2018-12-17T20:09:02.256Z,57.13
2018-12-17T20:11:32.690Z,59.48
2018-12-17T20:14:01.801Z,64.40
2018-12-17T20:16:30.934Z,67.67
2018-12-17T20:19:00.127Z,60.08
2018-12-17T20:21:29.277Z,61.55
2018-12-17T20:23:58.442Z,57.83
2018-12-17T20:26:27.611Z,59.90
2018-12-17T20:28:56.723Z,49.10
2018-12-17T20:31:25.935Z,49.75
2018-12-17T20:33:55.150Z,52.80
2018-12-17T20:36:24.413Z,53.60
2018-12-17T20:38:53.674Z,66.37
2018-12-17T20:41:22.879Z,58.92
2018-12-17T20:43:52.058Z,43.38
2018-12-17T20:46:21.277Z,54.10
2018-12-17T20:48:50.442Z,63.23
2018-12-17T20:51:19.627Z,61.70
2018-12-17T20:53:49.976Z,57.65
2018-12-17T20:56:19.664Z,51.33
2018-12-17T20:58:48.871Z,47.88
2018-12-17T21:01:18.085Z,49.85
2018-12-17T21:03:47.275Z,59.18
2018-12-17T21:06:16.942Z,48.28
2018-12-17T21:08:46.207Z,55.85
2018-12-17T21:11:15.485Z,58.25
2018-12-17T21:13:44.654Z,58.80
2018-12-17T21:16:14.202Z,55.43
2018-12-17T21:18:43.359Z,54.77
2018-12-17T21:21:12.543Z,60.67
2018-12-17T21:23:42.586Z,55.12
2018-12-17T21:26:11.873Z,56.45
2018-12-17T21:28:41.079Z,52.80
2018-12-17T21:31:10.366Z,40.45
2018-12-17T21:33:39.569Z,52.95
2018-12-17T21:36:08.803Z,51.15
2018-12-17T21:38:38.091Z,46.35
2018-12-17T21:41:07.359Z,46.75
2018-12-17T21:43:36.650Z,57.20
2018-12-17T21:46:05.813Z,52.93
2018-12-17T21:48:35.094Z,51.10
2018-12-17T21:51:04.345Z,50.17
2018-12-17T21:53:33.641Z,58.98
2018-12-17T21:56:02.834Z,61.60
2018-12-17T21:58:32.093Z,55.10
2018-12-17T22:01:01.267Z,59.60
2018-12-17T22:03:31.533Z,56.88
2018-12-17T22:06:00.740Z,59.45
2018-12-17T22:08:29.916Z,53.52
2018-12-17T22:10:59.236Z,56.45
2018-12-17T22:13:28.405Z,54.05
2018-12-17T22:15:57.560Z,53.75
2018-12-17T22:18:26.742Z,52.55
2018-12-17T22:20:56.100Z,55.25
2018-12-17T22:23:25.216Z,55.33
2018-12-17T22:25:54.515Z,61.90
2018-12-17T22:28:23.694Z,54.95
2018-12-17T22:30:52.990Z,68.42
2018-12-17T22:33:22.124Z,61.08
2018-12-17T22:35:51.308Z,60.00
2018-12-17T22:38:20.476Z,59.63
2018-12-17T22:40:49.679Z,61.02
2018-12-17T22:44:48.406Z,58.33
2018-12-17T22:47:17.525Z,64.65
2018-12-17T22:49:46.669Z,71.65
2018-12-17T22:52:15.833Z,71.28
2018-12-17T22:54:45.172Z,67.58
2018-12-17T22:57:14.552Z,66.00
2018-12-17T22:59:43.909Z,69.37
2018-12-17T23:02:13.081Z,73.45
2018-12-17T23:04:42.220Z,56.95
2018-12-17T23:07:12.477Z,70.17
2018-12-17T23:09:53.156Z,68.40
2018-12-17T23:12:33.506Z,60.17
2018-12-17T23:15:14.020Z,78.87
2018-12-17T23:17:42.700Z,67.35
2018-12-17T23:20:11.967Z,76.90
2018-12-17T23:22:43.862Z,74.30
2018-12-17T23:25:15.114Z,59.15
2018-12-17T23:27:49.794Z,69.53
2018-12-17T23:30:21.262Z,68.70
2018-12-17T23:32:50.496Z,70.35
2018-12-17T23:35:19.709Z,65.05
2018-12-17T23:37:48.917Z,82.90
2018-12-17T23:40:18.054Z,67.75
2018-12-17T23:42:48.336Z,74.50
2018-12-17T23:45:20.394Z,73.40
2018-12-17T23:47:49.731Z,81.12
2018-12-17T23:50:18.872Z,64.50
2018-12-17T23:52:48.044Z,68.10
2018-12-17T23:55:17.164Z,69.22
2018-12-17T23:57:46.360Z,77.45
